KJXI

Fox Stephens Field - Gilmer Municipal Airport

Gilmer, Texas, USA
METAR KJXI 201515Z AUTO 15009KT 10SM OVC022 21/17 A3001 RMK AO2 T02060170
Observed Flight Rules
Feb-20 @ 15:15 UTC (2 hours ago) Marginal Visual Flight Rules
Wind Visibility Clouds
150° at 9 knots 10 miles
  • Overcast at 2,200' AGL
Temperatures Readings
Current 21°C / 70°F
Dewpoint 17°C / 63°F
Humidity 78%
Altimeter 30.01" Hg
Pressure 1016 hPa
Elevation 127
METAR KJXI 201515Z AUTO 15009KT 10SM OVC022 21/17 A3001 RMK AO2 T02060170
Observed Flight Rules
Feb-20 @ 15:15 UTC
(2 hours ago)
MVFR
Wind Visibility
150° at 9 knots 10 miles
Clouds
  • Overcast at 2,200' AGL
Temperature Dewpoint
21°C / 70°F 17°C / 63°F
Humidity Altimeter Pressure
78% 30.01" Hg 1016 hPa